createdAt,value
2019-05-13T00:00:25.226Z,58.16
2019-05-13T00:02:57.035Z,58.82
2019-05-13T00:05:33.837Z,58.38
2019-05-13T00:08:05.521Z,57.99
2019-05-13T00:10:37.281Z,57.81
2019-05-13T00:13:14.656Z,56.95
2019-05-13T00:15:51.463Z,58.27
2019-05-13T00:18:23.637Z,58.57
2019-05-13T00:20:55.644Z,58.36
2019-05-13T00:23:27.319Z,58.10
2019-05-13T00:26:03.834Z,57.23
2019-05-13T00:28:37.200Z,57.02
2019-05-13T00:31:13.773Z,57.08
2019-05-13T00:33:45.488Z,57.43
2019-05-13T00:36:17.173Z,57.25
2019-05-13T00:38:48.899Z,57.17
2019-05-13T00:41:20.659Z,58.10
2019-05-13T00:43:53.473Z,59.06
2019-05-13T00:46:27.010Z,59.40
2019-05-13T00:49:04.602Z,59.45
2019-05-13T00:51:36.408Z,58.89
2019-05-13T00:54:08.081Z,58.32
2019-05-13T00:56:40.053Z,58.60
2019-05-13T00:59:14.004Z,58.89
2019-05-13T01:01:48.214Z,59.29
2019-05-13T01:04:19.920Z,59.36
2019-05-13T01:06:53.619Z,60.26
2019-05-13T01:09:25.211Z,60.63
2019-05-13T01:11:56.921Z,60.44
2019-05-13T01:14:28.650Z,60.50
2019-05-13T01:17:00.842Z,59.63
2019-05-13T01:19:34.280Z,59.66
2019-05-13T01:22:05.988Z,59.13
2019-05-13T01:24:37.725Z,59.19
2019-05-13T01:27:09.374Z,59.93
2019-05-13T01:29:43.399Z,60.37
2019-05-13T01:32:14.950Z,61.12
2019-05-13T01:34:49.204Z,60.55
2019-05-13T01:37:23.383Z,60.50
2019-05-13T01:39:56.031Z,59.95
2019-05-13T01:42:27.791Z,59.98
2019-05-13T01:44:59.771Z,59.86
2019-05-13T01:47:31.489Z,59.78
2019-05-13T01:50:04.066Z,59.26
2019-05-13T01:52:36.076Z,58.67
2019-05-13T01:55:07.840Z,58.39
2019-05-13T01:57:39.555Z,58.85
2019-05-13T02:00:13.781Z,59.15
2019-05-13T02:02:44.812Z,59.21
2019-05-13T02:05:16.548Z,59.42
2019-05-13T02:07:57.742Z,58.65
2019-05-13T02:10:40.566Z,58.12
2019-05-13T02:13:14.627Z,60.24
2019-05-13T02:15:46.037Z,61.54
2019-05-13T02:18:17.740Z,61.98
2019-05-13T02:20:49.451Z,63.23
2019-05-13T02:23:23.243Z,63.59
2019-05-13T02:25:55.905Z,62.37
2019-05-13T02:28:27.583Z,62.18
2019-05-13T02:30:59.510Z,61.21
2019-05-13T02:33:33.934Z,60.34
2019-05-13T02:36:04.730Z,60.04
2019-05-13T02:38:38.100Z,59.99
2019-05-13T02:41:13.410Z,59.55
2019-05-13T02:43:45.282Z,58.80
2019-05-13T02:46:17.354Z,59.08
2019-05-13T02:48:52.558Z,59.14
2019-05-13T02:51:23.146Z,58.73
2019-05-13T02:53:55.009Z,58.52
2019-05-13T02:56:26.744Z,58.54
2019-05-13T02:58:59.437Z,57.79
2019-05-13T03:01:33.239Z,58.37
2019-05-13T03:04:04.928Z,59.15
2019-05-13T03:06:36.929Z,59.64
2019-05-13T03:09:12.455Z,58.99
2019-05-13T03:11:42.739Z,58.87
2019-05-13T03:14:17.332Z,60.25
2019-05-13T03:17:13.091Z,60.20
2019-05-13T03:19:44.310Z,62.00
2019-05-13T03:22:16.392Z,62.36
2019-05-13T03:24:48.077Z,63.00
2019-05-13T03:27:24.550Z,62.69
2019-05-13T03:29:53.555Z,61.88
2019-05-13T03:32:28.880Z,61.78
2019-05-13T03:34:59.129Z,62.41
2019-05-13T03:37:34.828Z,62.50
2019-05-13T03:40:06.282Z,62.05
2019-05-13T03:42:38.044Z,62.56
2019-05-13T03:45:13.001Z,62.38
2019-05-13T03:47:45.670Z,62.45
2019-05-13T03:50:17.425Z,62.10
2019-05-13T03:52:52.268Z,62.34
2019-05-13T03:55:23.608Z,61.62
2019-05-13T03:57:58.389Z,61.94
2019-05-13T04:00:32.227Z,62.27
2019-05-13T04:03:03.741Z,62.44
2019-05-13T04:05:35.523Z,62.82
2019-05-13T04:08:07.249Z,61.28
2019-05-13T04:10:41.948Z,61.79
2019-05-13T04:13:13.196Z,61.91
2019-05-13T04:15:44.936Z,61.99
2019-05-13T04:18:17.093Z,61.94
2019-05-13T04:20:52.995Z,61.18
2019-05-13T04:23:23.786Z,60.33
2019-05-13T04:25:56.114Z,61.48
2019-05-13T04:28:27.831Z,60.51
2019-05-13T04:31:03.018Z,59.74
2019-05-13T04:33:33.769Z,59.93
2019-05-13T04:36:05.693Z,59.74
2019-05-13T04:38:37.802Z,59.90
2019-05-13T04:41:12.315Z,60.48
2019-05-13T04:43:44.495Z,60.01
2019-05-13T04:46:16.277Z,60.05
2019-05-13T04:48:48.047Z,59.60
2019-05-13T04:51:22.645Z,59.40
2019-05-13T04:53:57.279Z,59.15
2019-05-13T04:56:28.193Z,59.35
2019-05-13T04:59:03.000Z,58.86
2019-05-13T05:02:05.058Z,58.64
2019-05-13T05:05:22.596Z,59.44
2019-05-13T05:08:24.452Z,59.76
2019-05-13T05:11:32.134Z,60.54
2019-05-13T05:14:24.849Z,60.67
2019-05-13T05:17:22.523Z,61.24
2019-05-13T05:20:18.487Z,62.08
2019-05-13T05:23:33.903Z,62.70
2019-05-13T05:26:24.552Z,61.65
2019-05-13T05:29:36.553Z,61.37
2019-05-13T05:33:11.339Z,62.00
2019-05-13T05:36:26.425Z,62.38
2019-05-13T05:39:12.177Z,61.44
2019-05-13T05:41:43.170Z,62.97
2019-05-13T05:44:14.983Z,62.71
2019-05-13T05:46:46.667Z,60.96
2019-05-13T05:49:18.428Z,60.30
2019-05-13T05:51:51.503Z,59.86
2019-05-13T05:54:23.400Z,58.93
2019-05-13T05:56:57.099Z,58.48
2019-05-13T05:59:28.799Z,56.95
2019-05-13T06:02:02.350Z,58.53
2019-05-13T06:04:36.351Z,58.01
2019-05-13T06:07:08.073Z,54.17
2019-05-13T06:09:42.215Z,48.58
2019-05-13T06:12:13.574Z,45.09
2019-05-13T06:14:45.296Z,45.44
2019-05-13T06:17:17.031Z,44.26
2019-05-13T06:19:51.104Z,40.58
2019-05-13T06:22:29.048Z,38.46
2019-05-13T06:25:01.467Z,38.28
2019-05-13T06:27:36.837Z,41.91
2019-05-13T06:34:33.157Z,36.97
2019-05-13T06:37:06.846Z,34.26
2019-05-13T06:40:03.943Z,33.67
2019-05-13T06:46:06.758Z,31.63
2019-05-13T06:48:41.518Z,30.71
2019-05-13T06:51:13.383Z,31.21
2019-05-13T06:53:45.089Z,31.03
2019-05-13T06:57:13.376Z,30.10
2019-05-13T06:59:52.365Z,29.32
2019-05-13T07:02:46.481Z,28.78
2019-05-13T07:05:47.136Z,29.01
2019-05-13T07:08:26.500Z,28.20
2019-05-13T07:10:58.209Z,28.96
2019-05-13T07:13:51.485Z,28.14
2019-05-13T07:16:22.557Z,26.77
2019-05-13T07:18:54.278Z,25.84
2019-05-13T07:21:25.980Z,24.57
2019-05-13T07:24:02.579Z,23.00
2019-05-13T07:26:55.328Z,23.62
2019-05-13T07:29:27.157Z,23.07
2019-05-13T07:32:01.466Z,22.63
2019-05-13T07:34:34.619Z,22.40
2019-05-13T07:37:06.341Z,21.98
2019-05-13T07:43:39.102Z,22.44
2019-05-13T07:46:12.590Z,22.80
2019-05-13T07:48:44.301Z,22.34
2019-05-13T07:51:16.008Z,21.12
2019-05-13T07:53:51.688Z,21.38
2019-05-13T07:56:22.867Z,20.55
2019-05-13T07:58:54.948Z,19.69
2019-05-13T08:01:28.657Z,18.43
2019-05-13T08:04:02.196Z,18.05
2019-05-13T08:06:34.038Z,17.59
2019-05-13T08:09:08.998Z,18.23
2019-05-13T08:11:59.953Z,18.14
2019-05-13T08:14:14.869Z,18.20
2019-05-13T08:16:51.821Z,19.74
2019-05-13T08:19:23.671Z,18.35
2019-05-13T08:21:55.368Z,19.17
2019-05-13T08:24:27.162Z,17.72
2019-05-13T08:27:01.634Z,17.63
2019-05-13T08:29:33.043Z,17.96
2019-05-13T08:32:05.339Z,16.95
2019-05-13T08:34:37.145Z,16.68
2019-05-13T08:37:11.216Z,16.18
2019-05-13T08:39:42.371Z,17.31
2019-05-13T08:42:19.432Z,17.46
2019-05-13T08:44:48.677Z,17.66
2019-05-13T08:47:22.412Z,18.39
2019-05-13T08:49:54.214Z,18.93
2019-05-13T08:52:25.939Z,17.94
2019-05-13T08:54:57.661Z,17.17
2019-05-13T08:57:31.500Z,17.49
2019-05-13T09:00:05.532Z,17.86
2019-05-13T09:02:36.483Z,18.70
2019-05-13T09:05:12.074Z,17.38
2019-05-13T09:07:43.492Z,18.02
2019-05-13T09:10:15.189Z,17.44
2019-05-13T09:12:52.051Z,17.16
2019-05-13T09:15:22.824Z,17.34
2019-05-13T09:17:54.633Z,16.62
2019-05-13T09:20:26.324Z,15.47
2019-05-13T09:22:58.039Z,18.62
2019-05-13T09:25:32.070Z,18.23
2019-05-13T09:28:04.643Z,17.96
2019-05-13T09:30:36.521Z,16.62
2019-05-13T09:33:08.206Z,16.97
2019-05-13T09:35:42.111Z,17.02
2019-05-13T09:38:13.431Z,18.30
2019-05-13T09:40:46.697Z,18.80
2019-05-13T09:43:18.932Z,17.44
2019-05-13T09:45:52.340Z,17.39
2019-05-13T09:48:25.732Z,17.93
2019-05-13T09:50:57.461Z,18.04
2019-05-13T09:53:29.134Z,18.26
2019-05-13T09:56:02.398Z,18.90
2019-05-13T09:58:34.962Z,17.72
2019-05-13T10:01:06.728Z,17.15
2019-05-13T10:03:53.199Z,17.21
2019-05-13T10:06:12.785Z,17.77
2019-05-13T10:08:45.309Z,17.49
2019-05-13T10:11:17.080Z,17.36
2019-05-13T10:13:51.337Z,18.32
2019-05-13T10:16:22.270Z,17.99
2019-05-13T10:18:53.946Z,18.44
2019-05-13T10:21:27.322Z,17.41
2019-05-13T10:23:59.384Z,16.54
2019-05-13T10:26:32.047Z,17.72
2019-05-13T10:29:04.047Z,17.34
2019-05-13T10:31:35.770Z,18.56
2019-05-13T10:34:07.572Z,18.20
2019-05-13T10:36:42.106Z,17.58
2019-05-13T10:39:14.331Z,17.19
2019-05-13T10:41:47.546Z,18.00
2019-05-13T10:44:19.281Z,19.58
2019-05-13T10:46:52.719Z,17.68
2019-05-13T10:49:24.426Z,17.70
2019-05-13T10:51:56.207Z,17.60
2019-05-13T10:54:27.978Z,17.81
2019-05-13T10:57:00.771Z,17.67
2019-05-13T10:59:34.965Z,18.40
2019-05-13T11:02:06.676Z,18.93
2019-05-13T11:04:41.769Z,18.46
2019-05-13T11:07:13.585Z,18.39
2019-05-13T11:09:45.275Z,18.21
2019-05-13T11:12:17.024Z,18.11
2019-05-13T11:14:51.490Z,18.32
2019-05-13T11:17:46.704Z,18.89
2019-05-13T11:20:18.446Z,18.16
2019-05-13T11:22:52.150Z,17.12
2019-05-13T11:25:23.617Z,18.60
2019-05-13T11:27:58.407Z,18.26
2019-05-13T11:30:28.873Z,18.35
2019-05-13T11:33:02.294Z,18.06
2019-05-13T11:35:34.467Z,18.03
2019-05-13T11:38:06.468Z,18.83
2019-05-13T11:40:38.195Z,18.33
2019-05-13T11:43:12.260Z,19.62
2019-05-13T11:45:45.615Z,18.37
2019-05-13T11:48:17.984Z,19.41
2019-05-13T11:50:54.021Z,21.53
2019-05-13T11:53:32.888Z,21.09
2019-05-13T11:56:03.246Z,20.49
2019-05-13T11:58:32.863Z,19.47
2019-05-13T12:01:05.883Z,20.77
2019-05-13T12:03:37.638Z,20.41
2019-05-13T12:06:09.608Z,20.08
2019-05-13T12:08:50.097Z,20.32
2019-05-13T12:11:15.329Z,20.76
2019-05-13T12:13:52.855Z,20.85
2019-05-13T12:16:24.719Z,20.27
2019-05-13T12:19:03.090Z,20.96
2019-05-13T12:21:41.645Z,21.26
2019-05-13T12:24:11.258Z,21.29
2019-05-13T12:26:43.784Z,20.93
2019-05-13T12:29:19.178Z,21.46
2019-05-13T12:31:52.333Z,20.61
2019-05-13T12:34:23.054Z,20.46
2019-05-13T12:36:55.105Z,20.77
2019-05-13T12:39:26.851Z,19.85
2019-05-13T12:41:58.595Z,21.52
2019-05-13T12:44:31.601Z,21.18
2019-05-13T12:47:03.607Z,21.54
2019-05-13T12:49:36.983Z,20.74
2019-05-13T12:52:08.705Z,20.02
2019-05-13T12:54:43.829Z,20.28
2019-05-13T12:57:16.131Z,19.40
2019-05-13T12:59:47.538Z,19.96
2019-05-13T13:02:19.311Z,19.32
2019-05-13T13:05:08.643Z,20.50
2019-05-13T13:07:24.532Z,20.50
2019-05-13T13:09:56.856Z,21.46
2019-05-13T13:12:34.598Z,20.67
2019-05-13T13:15:20.335Z,19.89
2019-05-13T13:17:35.399Z,19.78
2019-05-13T13:20:09.743Z,19.55
2019-05-13T13:22:40.684Z,19.79
2019-05-13T13:25:14.178Z,20.91
2019-05-13T13:28:08.943Z,20.51
2019-05-13T13:30:19.455Z,20.53
2019-05-13T13:32:54.947Z,19.69
2019-05-13T13:35:25.027Z,19.08
2019-05-13T13:37:56.716Z,19.80
2019-05-13T13:40:30.566Z,19.26
2019-05-13T13:43:05.218Z,21.30
2019-05-13T13:46:05.995Z,19.77
2019-05-13T13:48:12.885Z,19.88
2019-05-13T13:50:44.262Z,20.53
2019-05-13T13:53:15.879Z,21.00
2019-05-13T13:55:47.841Z,20.43
2019-05-13T13:58:23.941Z,18.95
2019-05-13T14:01:05.645Z,20.29
2019-05-13T14:03:26.372Z,19.59
2019-05-13T14:05:58.599Z,19.38
2019-05-13T14:08:30.315Z,19.98
2019-05-13T14:11:03.304Z,19.63
2019-05-13T14:13:35.617Z,20.07
2019-05-13T14:16:22.415Z,19.42
2019-05-13T14:18:42.454Z,18.41
2019-05-13T14:21:14.206Z,18.87
2019-05-13T14:23:46.080Z,19.23
2019-05-13T14:26:17.789Z,19.11
2019-05-13T14:28:49.523Z,19.94
2019-05-13T14:31:21.644Z,20.33
2019-05-13T14:33:55.031Z,19.39
2019-05-13T14:36:26.788Z,19.85
2019-05-13T14:38:58.835Z,19.35
2019-05-13T14:41:31.529Z,19.50
2019-05-13T14:44:03.837Z,19.37
2019-05-13T14:46:47.242Z,19.35
2019-05-13T14:49:12.135Z,19.97
2019-05-13T14:51:42.914Z,19.36
2019-05-13T14:54:15.694Z,19.79
2019-05-13T14:56:47.383Z,20.36
2019-05-13T14:59:19.111Z,19.36
2019-05-13T15:01:51.843Z,20.03
2019-05-13T15:04:24.039Z,19.66
2019-05-13T15:06:55.704Z,19.77
2019-05-13T15:09:27.450Z,19.58
2019-05-13T15:12:01.789Z,21.18
2019-05-13T15:14:32.591Z,20.67
2019-05-13T15:17:07.468Z,20.05
2019-05-13T15:19:39.850Z,20.60
2019-05-13T15:22:15.909Z,20.14
2019-05-13T15:24:48.233Z,20.57
2019-05-13T15:27:22.365Z,20.63
2019-05-13T15:29:53.357Z,20.43
2019-05-13T15:32:25.006Z,20.24
2019-05-13T15:34:57.126Z,20.71
2019-05-13T15:37:32.130Z,20.57
2019-05-13T15:40:03.468Z,21.16
2019-05-13T15:42:35.818Z,21.06
2019-05-13T15:45:07.863Z,21.30
2019-05-13T15:47:41.207Z,21.06
2019-05-13T15:50:12.871Z,21.03
2019-05-13T15:52:46.076Z,21.64
2019-05-13T15:55:17.758Z,21.14
2019-05-13T15:57:52.471Z,20.21
2019-05-13T16:00:25.743Z,21.23
2019-05-13T16:02:57.423Z,21.68
2019-05-13T16:05:29.613Z,22.58
2019-05-13T16:08:02.632Z,22.21
2019-05-13T16:10:34.470Z,21.75
2019-05-13T16:13:06.220Z,21.19
2019-05-13T16:15:41.961Z,21.21
2019-05-13T16:18:13.613Z,21.25
2019-05-13T16:20:45.570Z,20.96
2019-05-13T16:23:17.360Z,21.31
2019-05-13T16:25:49.031Z,21.32
2019-05-13T16:28:20.718Z,21.27
2019-05-13T16:30:52.573Z,21.29
2019-05-13T16:33:24.736Z,21.75
2019-05-13T16:35:56.404Z,22.07
2019-05-13T16:38:28.135Z,22.09
2019-05-13T16:41:01.432Z,22.62
2019-05-13T16:43:36.105Z,21.65
2019-05-13T16:46:12.156Z,21.40
2019-05-13T16:48:43.466Z,21.62
2019-05-13T16:51:15.307Z,21.24
2019-05-13T16:53:48.026Z,21.76
2019-05-13T16:56:27.678Z,20.81
2019-05-13T16:58:55.402Z,21.00
2019-05-13T17:01:29.710Z,20.92
2019-05-13T17:04:09.620Z,21.11
2019-05-13T17:06:45.038Z,21.95
2019-05-13T17:09:17.039Z,22.13
2019-05-13T17:11:49.120Z,22.30
2019-05-13T17:14:23.735Z,21.75
2019-05-13T17:16:55.449Z,21.45
2019-05-13T17:19:27.440Z,21.36
2019-05-13T17:21:59.171Z,21.49
2019-05-13T17:24:31.888Z,21.38
2019-05-13T17:27:03.949Z,21.59
2019-05-13T17:29:35.706Z,21.31
2019-05-13T17:32:07.478Z,21.92
2019-05-13T17:34:43.491Z,21.92
2019-05-13T17:37:13.111Z,22.17
2019-05-13T17:39:45.223Z,22.27
2019-05-13T17:42:16.972Z,21.87
2019-05-13T17:44:48.703Z,22.30
2019-05-13T17:47:21.852Z,22.78
2019-05-13T17:49:53.756Z,22.47
2019-05-13T17:52:26.715Z,22.04
2019-05-13T17:55:01.189Z,21.86
2019-05-13T17:57:32.175Z,22.93
2019-05-13T18:00:03.919Z,22.71
2019-05-13T18:02:36.358Z,22.78
2019-05-13T18:05:08.077Z,24.53
2019-05-13T18:07:41.863Z,23.31
2019-05-13T18:10:14.492Z,24.03
2019-05-13T18:12:46.635Z,24.90
2019-05-13T18:15:18.454Z,26.77
2019-05-13T18:17:52.251Z,26.67
2019-05-13T18:20:23.803Z,27.50
2019-05-13T18:22:55.639Z,27.28
2019-05-13T18:25:27.406Z,27.32
2019-05-13T18:28:01.368Z,27.34
2019-05-13T18:30:32.631Z,27.58
2019-05-13T18:33:06.346Z,27.47
2019-05-13T18:35:38.044Z,27.59
2019-05-13T18:38:11.770Z,28.04
2019-05-13T18:40:43.172Z,27.72
2019-05-13T18:43:14.843Z,28.35
2019-05-13T18:45:46.538Z,28.89
2019-05-13T18:48:18.723Z,29.10
2019-05-13T18:50:54.744Z,29.14
2019-05-13T18:53:26.446Z,28.99
2019-05-13T18:55:58.158Z,30.65
2019-05-13T18:58:31.634Z,31.17
2019-05-13T19:01:03.570Z,32.17
2019-05-13T19:03:35.287Z,33.23
2019-05-13T19:06:07.019Z,33.72
2019-05-13T19:08:38.730Z,34.12
2019-05-13T19:11:11.723Z,34.78
2019-05-13T19:13:43.597Z,35.70
2019-05-13T19:16:15.290Z,37.14
2019-05-13T19:18:47.138Z,37.78
2019-05-13T19:21:18.914Z,37.95
2019-05-13T19:23:51.294Z,38.69
2019-05-13T19:26:23.191Z,38.71
2019-05-13T19:28:54.863Z,39.64
2019-05-13T19:31:27.505Z,39.68
2019-05-13T19:34:01.364Z,40.40
2019-05-13T19:36:32.641Z,40.52
2019-05-13T19:39:08.352Z,38.98
2019-05-13T19:41:42.209Z,41.78
2019-05-13T19:44:13.969Z,42.37
2019-05-13T19:46:45.733Z,42.38
2019-05-13T19:49:29.679Z,42.40
2019-05-13T19:51:52.169Z,42.74
2019-05-13T19:54:24.038Z,42.88
2019-05-13T19:56:57.601Z,45.39
2019-05-13T19:59:32.071Z,45.89
2019-05-13T20:02:03.380Z,45.01
2019-05-13T20:04:35.026Z,45.46
2019-05-13T20:07:07.735Z,46.03
2019-05-13T20:09:39.428Z,46.77
2019-05-13T20:12:11.370Z,45.94
2019-05-13T20:14:43.072Z,46.62
2019-05-13T20:17:14.764Z,47.17
2019-05-13T20:19:50.767Z,48.05
2019-05-13T20:22:20.018Z,48.20
2019-05-13T20:24:51.734Z,48.16
2019-05-13T20:27:23.401Z,48.69
2019-05-13T20:29:55.811Z,49.40
2019-05-13T20:32:27.532Z,49.35
2019-05-13T20:34:59.311Z,48.64
2019-05-13T20:37:32.110Z,49.19
2019-05-13T20:40:04.804Z,49.09
2019-05-13T20:42:36.575Z,49.41
2019-05-13T20:45:08.353Z,49.86
2019-05-13T20:47:41.976Z,51.07
2019-05-13T20:50:13.583Z,51.19
2019-05-13T20:52:45.358Z,51.99
2019-05-13T20:55:17.168Z,52.48
2019-05-13T20:57:49.244Z,52.66
2019-05-13T21:00:21.979Z,54.33
2019-05-13T21:02:53.698Z,53.56
2019-05-13T21:05:25.530Z,53.42
2019-05-13T21:07:57.634Z,53.60
2019-05-13T21:10:31.401Z,53.77
2019-05-13T21:13:02.942Z,53.91
2019-05-13T21:15:34.639Z,53.59
2019-05-13T21:18:06.427Z,53.58
2019-05-13T21:20:41.008Z,54.03
2019-05-13T21:23:12.918Z,54.84
2019-05-13T21:25:44.704Z,54.92
2019-05-13T21:28:16.446Z,55.41
2019-05-13T21:30:51.428Z,55.63
2019-05-13T21:33:23.208Z,55.73
2019-05-13T21:35:54.869Z,55.75
2019-05-13T21:38:27.506Z,56.05
2019-05-13T21:40:59.225Z,55.90
2019-05-13T21:43:32.335Z,56.20
2019-05-13T21:46:06.366Z,56.22
2019-05-13T21:48:55.281Z,56.72
2019-05-13T21:51:28.457Z,57.07
2019-05-13T21:54:01.228Z,56.40
2019-05-13T21:56:32.940Z,56.46
2019-05-13T21:59:04.896Z,57.14
2019-05-13T22:01:36.669Z,58.06
2019-05-13T22:04:08.822Z,58.22
2019-05-13T22:06:42.534Z,58.39
2019-05-13T22:09:14.470Z,58.74
2019-05-13T22:11:46.112Z,58.42
2019-05-13T22:14:17.809Z,58.04
2019-05-13T22:16:51.660Z,57.88
2019-05-13T22:19:25.017Z,57.46
2019-05-13T22:21:56.899Z,57.70
2019-05-13T22:24:31.256Z,57.50
2019-05-13T22:27:04.838Z,58.19
2019-05-13T22:29:37.843Z,58.38
2019-05-13T22:32:11.313Z,58.34
2019-05-13T22:34:42.941Z,58.67
2019-05-13T22:37:14.687Z,59.08
2019-05-13T22:39:46.364Z,59.49
2019-05-13T22:42:21.409Z,60.11
2019-05-13T22:44:52.516Z,60.32
2019-05-13T22:47:24.392Z,60.48
2019-05-13T22:49:56.976Z,59.89
2019-05-13T22:52:31.110Z,60.81
2019-05-13T22:55:04.669Z,61.40
2019-05-13T22:57:38.246Z,61.13
2019-05-13T23:00:11.925Z,60.91
2019-05-13T23:02:45.308Z,60.70
2019-05-13T23:05:16.981Z,60.21
2019-05-13T23:07:48.817Z,60.32
2019-05-13T23:10:22.625Z,60.94
2019-05-13T23:13:01.972Z,60.98
2019-05-13T23:15:33.276Z,61.13
2019-05-13T23:18:05.076Z,61.56
2019-05-13T23:20:36.770Z,61.66
2019-05-13T23:23:08.937Z,61.95
2019-05-13T23:25:43.179Z,61.96
2019-05-13T23:28:16.356Z,61.36
2019-05-13T23:30:48.042Z,60.99
2019-05-13T23:33:21.984Z,60.62
2019-05-13T23:35:53.917Z,60.91
2019-05-13T23:38:25.573Z,60.78
2019-05-13T23:40:58.821Z,61.00
2019-05-13T23:43:32.546Z,61.04
2019-05-13T23:46:04.205Z,61.58
2019-05-13T23:48:36.335Z,61.86
2019-05-13T23:51:08.047Z,61.87
2019-05-13T23:53:41.658Z,62.41
2019-05-13T23:56:13.168Z,62.60
2019-05-13T23:58:44.851Z,62.74
